createdAt,value
2022-11-30T00:00:12.117Z,102087.50
2022-11-30T00:02:14.199Z,102094.06
2022-11-30T00:04:16.188Z,102084.00
2022-11-30T00:06:23.543Z,102090.69
2022-11-30T00:08:29.399Z,102088.13
2022-11-30T00:10:31.318Z,102085.63
2022-11-30T00:12:34.029Z,102086.44
2022-11-30T00:14:35.815Z,102089.06
2022-11-30T00:16:37.798Z,102086.69
2022-11-30T00:18:40.262Z,102088.25
2022-11-30T00:20:42.208Z,102085.81
2022-11-30T00:22:44.011Z,102090.97
2022-11-30T00:24:46.009Z,102082.75
2022-11-30T00:26:48.127Z,102089.38
2022-11-30T00:28:51.007Z,102078.13
2022-11-30T00:31:03.785Z,102077.34
2022-11-30T00:33:05.639Z,102084.22
2022-11-30T00:35:07.778Z,102081.13
2022-11-30T00:37:09.628Z,102081.84
2022-11-30T00:39:11.686Z,102083.47
2022-11-30T00:41:14.159Z,102079.34
2022-11-30T00:43:16.039Z,102077.53
2022-11-30T00:45:17.907Z,102077.47
2022-11-30T00:47:19.787Z,102084.50
2022-11-30T00:49:21.540Z,102089.63
2022-11-30T00:51:23.411Z,102083.63
2022-11-30T00:53:25.228Z,102083.03
2022-11-30T00:55:30.353Z,102082.97
2022-11-30T00:57:33.178Z,102085.59
2022-11-30T00:59:35.158Z,102079.81
2022-11-30T01:01:37.270Z,102081.06
2022-11-30T01:03:39.348Z,102077.72
2022-11-30T01:05:43.373Z,102080.03
2022-11-30T01:07:45.228Z,102076.84
2022-11-30T01:09:47.030Z,102080.22
2022-11-30T01:11:49.068Z,102075.09
2022-11-30T01:13:51.817Z,102079.34
2022-11-30T01:15:53.815Z,102076.94
2022-11-30T01:17:55.758Z,102080.16
2022-11-30T01:19:57.696Z,102073.47
2022-11-30T01:21:59.483Z,102078.47
2022-11-30T01:24:01.377Z,102079.53
2022-11-30T01:26:03.492Z,102084.72
2022-11-30T01:28:05.600Z,102082.88
2022-11-30T01:30:08.557Z,102081.94
2022-11-30T01:32:10.429Z,102085.31
2022-11-30T01:34:12.225Z,102083.69
2022-11-30T01:36:16.880Z,102082.59
2022-11-30T01:38:18.847Z,102080.91
2022-11-30T01:40:20.747Z,102086.88
2022-11-30T01:42:22.524Z,102087.31
2022-11-30T01:44:26.735Z,102095.03
2022-11-30T01:46:28.994Z,102094.34
2022-11-30T01:48:31.537Z,102096.91
2022-11-30T01:50:36.128Z,102099.66
2022-11-30T01:52:41.868Z,102096.28
2022-11-30T01:54:52.045Z,102091.13
2022-11-30T01:56:59.539Z,102101.25
2022-11-30T01:59:01.619Z,102096.09
2022-11-30T02:01:04.355Z,102097.72
2022-11-30T02:03:16.596Z,102098.78
2022-11-30T02:05:19.287Z,102096.28
2022-11-30T02:07:21.260Z,102088.63
2022-11-30T02:09:24.309Z,102092.88
2022-11-30T02:11:28.696Z,102096.09
2022-11-30T02:13:50.197Z,102092.66
2022-11-30T02:16:04.484Z,102089.44
2022-11-30T02:18:14.698Z,102091.06
2022-11-30T02:20:26.529Z,102100.53
2022-11-30T02:22:50.768Z,102100.53
2022-11-30T02:25:03.548Z,102096.28
2022-11-30T02:27:22.433Z,102099.47
2022-11-30T02:29:28.447Z,102095.47
2022-11-30T02:31:54.198Z,102103.59
2022-11-30T02:33:59.687Z,102094.94
2022-11-30T02:36:05.418Z,102095.97
2022-11-30T02:38:07.962Z,102095.38
2022-11-30T02:40:16.387Z,102095.84
2022-11-30T02:42:18.327Z,102089.06
2022-11-30T02:44:23.044Z,102097.91
2022-11-30T02:46:35.493Z,102092.31
2022-11-30T02:48:56.937Z,102091.34
2022-11-30T02:51:02.980Z,102102.72
2022-11-30T02:53:05.009Z,102099.16
2022-11-30T02:55:10.618Z,102099.16
2022-11-30T02:57:12.606Z,102104.34
2022-11-30T02:59:14.548Z,102103.41
2022-11-30T03:01:16.390Z,102099.97
2022-11-30T03:03:18.386Z,102099.03
2022-11-30T03:05:20.182Z,102093.78
2022-11-30T03:07:22.036Z,102095.53
2022-11-30T03:09:23.921Z,102097.00
2022-11-30T03:11:26.277Z,102094.59
2022-11-30T03:13:28.476Z,102097.97
2022-11-30T03:15:30.869Z,102101.34
2022-11-30T03:17:38.417Z,102104.94
2022-11-30T03:19:40.362Z,102100.66
2022-11-30T03:21:42.138Z,102100.53
2022-11-30T03:23:44.028Z,102104.19
2022-11-30T03:25:46.035Z,102107.66
2022-11-30T03:27:48.161Z,102105.00
2022-11-30T03:29:50.358Z,102108.38
2022-11-30T03:31:55.447Z,102100.59
2022-11-30T03:34:01.526Z,102094.66
2022-11-30T03:36:17.661Z,102097.75
2022-11-30T03:38:19.981Z,102105.75
2022-11-30T03:40:21.981Z,102112.25
2022-11-30T03:42:24.216Z,102108.47
2022-11-30T03:44:25.986Z,102110.50
2022-11-30T03:46:31.383Z,102115.38
2022-11-30T03:48:39.826Z,102114.56
2022-11-30T03:50:42.307Z,102118.56
2022-11-30T03:52:44.192Z,102117.25
2022-11-30T03:54:47.044Z,102120.50
2022-11-30T03:56:49.137Z,102123.88
2022-11-30T03:58:52.013Z,102124.91
2022-11-30T04:01:04.991Z,102120.34
2022-11-30T04:03:10.905Z,102124.31
2022-11-30T04:05:13.899Z,102124.16
2022-11-30T04:07:15.819Z,102127.53
2022-11-30T04:09:17.671Z,102125.38
2022-11-30T04:11:19.431Z,102124.44
2022-11-30T04:13:22.318Z,102129.72
2022-11-30T04:15:24.463Z,102128.97
2022-11-30T04:17:27.382Z,102122.38
2022-11-30T04:19:30.440Z,102122.13
2022-11-30T04:21:36.621Z,102127.25
2022-11-30T04:23:40.260Z,102131.50
2022-11-30T04:25:42.357Z,102127.41
2022-11-30T04:27:47.668Z,102130.69
2022-11-30T04:29:49.825Z,102131.75
2022-11-30T04:31:52.406Z,102124.16
2022-11-30T04:33:54.890Z,102127.38
2022-11-30T04:36:07.274Z,102125.03
2022-11-30T04:38:09.133Z,102125.50
2022-11-30T04:40:12.197Z,102124.00
2022-11-30T04:42:14.066Z,102132.97
2022-11-30T04:44:15.857Z,102125.03
2022-11-30T04:46:20.974Z,102131.94
2022-11-30T04:48:22.961Z,102127.66
2022-11-30T04:50:27.667Z,102128.34
2022-11-30T04:52:32.760Z,102132.81
2022-11-30T04:54:34.718Z,102137.81
2022-11-30T04:56:38.505Z,102135.47
2022-11-30T04:58:40.416Z,102144.88
2022-11-30T05:00:45.977Z,102135.75
2022-11-30T05:02:52.954Z,102134.25
2022-11-30T05:04:55.304Z,102137.59
2022-11-30T05:06:58.369Z,102141.19
2022-11-30T05:09:00.331Z,102135.19
2022-11-30T05:11:02.181Z,102132.81
2022-11-30T05:13:04.393Z,102133.25
2022-11-30T05:15:07.536Z,102135.31
2022-11-30T05:17:09.280Z,102135.38
2022-11-30T05:19:11.492Z,102139.44
2022-11-30T05:21:14.952Z,102137.81
2022-11-30T05:23:19.742Z,102141.28
2022-11-30T05:25:22.016Z,102140.75
2022-11-30T05:27:26.787Z,102139.94
2022-11-30T05:29:32.658Z,102147.94
2022-11-30T05:31:40.820Z,102153.25
2022-11-30T05:33:45.981Z,102155.81
2022-11-30T05:35:47.947Z,102155.94
2022-11-30T05:37:49.732Z,102163.66
2022-11-30T05:39:51.676Z,102159.25
2022-11-30T05:41:53.808Z,102169.53
2022-11-30T05:43:56.298Z,102171.88
2022-11-30T05:46:01.287Z,102167.34
2022-11-30T05:48:03.155Z,102166.72
2022-11-30T05:50:06.119Z,102172.41
2022-11-30T05:52:08.317Z,102171.59
2022-11-30T05:54:10.156Z,102172.53
2022-11-30T05:56:15.622Z,102177.00
2022-11-30T05:58:34.141Z,102174.16
2022-11-30T06:00:36.095Z,102174.25
2022-11-30T06:02:38.125Z,102176.63
2022-11-30T06:04:42.761Z,102172.25
2022-11-30T06:06:45.296Z,102172.47
2022-11-30T06:08:48.856Z,102178.50
2022-11-30T06:10:51.190Z,102170.03
2022-11-30T06:12:53.823Z,102177.00
2022-11-30T06:14:56.066Z,102172.63
2022-11-30T06:16:58.141Z,102174.16
2022-11-30T06:19:00.323Z,102176.75
2022-11-30T06:21:04.405Z,102176.63
2022-11-30T06:23:07.608Z,102182.03
2022-11-30T06:25:10.721Z,102180.19
2022-11-30T06:27:13.152Z,102187.09
2022-11-30T06:29:15.191Z,102181.06
2022-11-30T06:31:18.958Z,102183.06
2022-11-30T06:33:24.313Z,102188.78
2022-11-30T06:35:26.166Z,102188.31
2022-11-30T06:37:28.033Z,102186.41
2022-11-30T06:39:57.708Z,102184.13
2022-11-30T06:41:54.614Z,102182.53
2022-11-30T06:43:56.647Z,102179.00
2022-11-30T06:45:58.478Z,102184.13
2022-11-30T06:48:00.358Z,102184.75
2022-11-30T06:50:02.225Z,102183.31
2022-11-30T06:52:04.013Z,102187.66
2022-11-30T06:54:10.035Z,102187.59
2022-11-30T06:56:14.985Z,102192.44
2022-11-30T06:58:17.317Z,102194.25
2022-11-30T07:00:21.321Z,102198.44
2022-11-30T07:02:24.989Z,102199.41
2022-11-30T07:04:38.912Z,102204.78
2022-11-30T07:06:41.238Z,102208.09
2022-11-30T07:08:46.161Z,102209.63
2022-11-30T07:11:01.616Z,102218.38
2022-11-30T07:13:21.796Z,102213.88
2022-11-30T07:16:06.846Z,102223.28
2022-11-30T07:18:18.623Z,102216.88
2022-11-30T07:20:26.008Z,102223.56
2022-11-30T07:22:35.898Z,102224.44
2022-11-30T07:24:52.836Z,102230.31
2022-11-30T07:27:05.816Z,102235.22
2022-11-30T07:29:17.887Z,102235.72
2022-11-30T07:31:24.138Z,102237.16
2022-11-30T07:33:45.422Z,102241.00
2022-11-30T07:36:08.349Z,102247.09
2022-11-30T07:38:16.377Z,102248.78
2022-11-30T07:40:22.826Z,102248.22
2022-11-30T07:42:34.786Z,102255.94
2022-11-30T07:44:42.087Z,102251.75
2022-11-30T07:47:11.950Z,102253.50
2022-11-30T07:49:33.168Z,102257.31
2022-11-30T07:51:52.037Z,102259.66
2022-11-30T07:54:08.927Z,102264.38
2022-11-30T07:59:11.052Z,102269.66
2022-11-30T08:01:16.248Z,102270.53
2022-11-30T08:03:18.161Z,102271.44
2022-11-30T08:05:20.206Z,102282.59
2022-11-30T08:07:22.002Z,102277.88
2022-11-30T08:09:23.948Z,102273.59
2022-11-30T08:11:28.527Z,102281.63
2022-11-30T08:13:31.630Z,102289.97
2022-11-30T08:15:33.948Z,102287.66
2022-11-30T08:17:36.229Z,102294.63
2022-11-30T08:19:38.072Z,102290.63
2022-11-30T08:21:40.042Z,102297.84
2022-11-30T08:23:43.944Z,102301.06
2022-11-30T08:25:45.891Z,102301.66
2022-11-30T08:27:47.811Z,102296.53
2022-11-30T08:29:49.629Z,102299.28
2022-11-30T08:31:51.561Z,102303.75
2022-11-30T08:33:58.356Z,102307.63
2022-11-30T08:36:09.131Z,102308.44
2022-11-30T08:38:10.804Z,102306.38
2022-11-30T08:40:13.007Z,102307.66
2022-11-30T08:42:15.069Z,102322.13
2022-11-30T08:44:17.070Z,102314.84
2022-11-30T08:46:49.721Z,102315.19
2022-11-30T08:48:43.821Z,102326.53
2022-11-30T08:50:45.883Z,102319.69
2022-11-30T08:52:47.733Z,102334.31
2022-11-30T08:54:49.947Z,102333.13
2022-11-30T08:56:52.837Z,102333.84
2022-11-30T08:58:56.319Z,102333.59
2022-11-30T09:01:07.607Z,102327.03
2022-11-30T09:03:09.488Z,102329.41
2022-11-30T09:05:11.529Z,102328.72
2022-11-30T09:07:13.807Z,102339.00
2022-11-30T09:09:15.706Z,102337.84
2022-11-30T09:11:24.971Z,102340.56
2022-11-30T09:13:27.256Z,102338.06
2022-11-30T09:15:29.171Z,102342.03
2022-11-30T09:17:31.086Z,102341.66
2022-11-30T09:19:32.972Z,102347.59
2022-11-30T09:21:34.746Z,102343.72
2022-11-30T09:23:37.592Z,102345.19
2022-11-30T09:25:39.531Z,102348.56
2022-11-30T09:27:41.391Z,102349.34
2022-11-30T09:29:43.274Z,102355.03
2022-11-30T09:31:45.077Z,102351.44
2022-11-30T09:33:47.492Z,102356.09
2022-11-30T09:35:59.125Z,102353.53
2022-11-30T09:38:01.172Z,102359.63
2022-11-30T09:40:03.010Z,102362.78
2022-11-30T09:42:21.361Z,102357.59
2022-11-30T09:44:39.212Z,102353.91
2022-11-30T09:46:49.392Z,102360.88
2022-11-30T09:49:05.986Z,102365.13
2022-11-30T09:51:15.392Z,102372.84
2022-11-30T09:53:29.788Z,102360.31
2022-11-30T09:55:39.598Z,102366.66
2022-11-30T09:57:47.146Z,102366.91
2022-11-30T09:59:55.848Z,102371.25
2022-11-30T10:02:02.398Z,102371.41
2022-11-30T10:04:04.551Z,102363.38
2022-11-30T10:06:12.788Z,102370.34
2022-11-30T10:08:31.091Z,102372.34
2022-11-30T10:11:02.685Z,102369.50
2022-11-30T10:13:21.567Z,102371.41
2022-11-30T10:15:37.165Z,102378.94
2022-11-30T10:17:56.868Z,102373.34
2022-11-30T10:20:15.372Z,102378.22
2022-11-30T10:22:36.713Z,102377.25
2022-11-30T10:24:39.897Z,102378.13
2022-11-30T10:26:52.587Z,102381.03
2022-11-30T10:28:58.133Z,102371.56
2022-11-30T10:31:01.992Z,102375.56
2022-11-30T10:33:18.792Z,102376.72
2022-11-30T10:35:33.628Z,102369.63
2022-11-30T10:37:37.572Z,102360.00
2022-11-30T10:39:48.171Z,102369.63
2022-11-30T10:42:00.075Z,102366.91
2022-11-30T10:44:11.616Z,102358.41
2022-11-30T10:46:24.921Z,102363.03
2022-11-30T10:48:38.037Z,102359.09
2022-11-30T10:50:41.326Z,102355.84
2022-11-30T10:52:51.574Z,102362.09
2022-11-30T10:55:00.583Z,102357.34
2022-11-30T10:57:07.557Z,102351.34
2022-11-30T10:59:17.215Z,102346.94
2022-11-30T11:01:30.092Z,102350.72
2022-11-30T11:03:32.623Z,102351.34
2022-11-30T11:05:34.517Z,102356.50
2022-11-30T11:07:48.403Z,102368.59
2022-11-30T11:09:51.602Z,102362.25
2022-11-30T11:11:55.764Z,102359.25
2022-11-30T11:14:19.340Z,102366.63
2022-11-30T11:16:22.708Z,102353.78
2022-11-30T11:18:27.949Z,102360.03
2022-11-30T11:20:32.120Z,102360.50
2022-11-30T11:22:34.498Z,102361.69
2022-11-30T11:24:36.855Z,102361.16
2022-11-30T11:26:54.535Z,102361.34
2022-11-30T11:29:00.117Z,102357.59
2022-11-30T11:31:19.407Z,102363.19
2022-11-30T11:33:26.661Z,102359.94
2022-11-30T11:35:37.720Z,102351.00
2022-11-30T11:37:46.400Z,102353.25
2022-11-30T11:40:01.087Z,102353.56
2022-11-30T11:42:04.426Z,102351.72
2022-11-30T11:44:09.856Z,102350.09
2022-11-30T11:46:14.676Z,102348.91
2022-11-30T11:48:33.724Z,102343.28
2022-11-30T11:51:08.911Z,102341.81
2022-11-30T11:53:23.189Z,102353.06
2022-11-30T11:55:25.357Z,102354.63
2022-11-30T11:57:39.397Z,102357.03
2022-11-30T11:59:46.910Z,102354.75
2022-11-30T12:01:53.778Z,102353.88
2022-11-30T12:04:02.318Z,102355.69
2022-11-30T12:06:10.733Z,102358.22
2022-11-30T12:08:14.807Z,102362.41
2022-11-30T12:10:50.544Z,102359.09
2022-11-30T12:12:47.528Z,102359.78
2022-11-30T12:14:51.889Z,102362.56
2022-11-30T12:16:57.425Z,102357.53
2022-11-30T12:19:05.743Z,102359.44
2022-11-30T12:21:14.924Z,102356.72
2022-11-30T12:23:23.269Z,102362.28
2022-11-30T12:25:27.561Z,102366.44
2022-11-30T12:27:33.320Z,102366.28
2022-11-30T12:29:41.280Z,102362.22
2022-11-30T12:31:57.639Z,102358.81
2022-11-30T12:34:08.104Z,102365.75
2022-11-30T12:36:15.895Z,102370.88
2022-11-30T12:38:26.241Z,102360.59
2022-11-30T12:40:36.980Z,102360.88
2022-11-30T12:42:44.364Z,102359.88
2022-11-30T12:44:47.433Z,102359.00
2022-11-30T12:46:54.202Z,102354.84
2022-11-30T12:49:02.751Z,102362.56
2022-11-30T12:51:11.130Z,102359.25
2022-11-30T12:53:22.564Z,102357.59
2022-11-30T12:55:31.109Z,102365.22
2022-11-30T12:57:42.347Z,102360.19
2022-11-30T12:59:55.577Z,102367.78
2022-11-30T13:02:01.161Z,102361.88
2022-11-30T13:04:09.896Z,102367.03
2022-11-30T13:06:17.611Z,102365.34
2022-11-30T13:08:26.989Z,102358.09
2022-11-30T13:10:35.466Z,102358.16
2022-11-30T13:12:43.254Z,102368.53
2022-11-30T13:14:46.864Z,102371.72
2022-11-30T13:16:56.058Z,102364.91
2022-11-30T13:19:08.367Z,102356.41
2022-11-30T13:21:21.482Z,102362.50
2022-11-30T13:23:31.588Z,102360.59
2022-11-30T13:28:06.908Z,102358.81
2022-11-30T13:30:12.714Z,102362.34
2022-11-30T13:34:38.890Z,102366.56
2022-11-30T13:36:45.122Z,102367.31
2022-11-30T13:38:47.951Z,102361.88
2022-11-30T13:40:57.516Z,102361.34
2022-11-30T13:42:59.582Z,102362.03
2022-11-30T13:45:12.518Z,102365.75
2022-11-30T13:47:19.586Z,102364.13
2022-11-30T13:49:27.536Z,102366.97
2022-11-30T13:51:35.442Z,102374.44
2022-11-30T13:53:39.259Z,102372.66
2022-11-30T13:55:43.240Z,102370.00
2022-11-30T13:57:46.188Z,102371.56
2022-11-30T14:00:03.954Z,102372.47
2022-11-30T14:02:18.060Z,102378.88
2022-11-30T14:04:23.022Z,102375.09
2022-11-30T14:06:31.271Z,102369.47
2022-11-30T14:08:37.289Z,102373.72
2022-11-30T14:10:42.074Z,102374.03
2022-11-30T14:12:46.285Z,102374.03
2022-11-30T14:14:48.832Z,102377.53
2022-11-30T14:16:51.352Z,102374.28
2022-11-30T14:18:56.066Z,102373.34
2022-11-30T14:21:03.093Z,102372.72
2022-11-30T14:23:08.978Z,102371.28
2022-11-30T14:25:17.150Z,102371.28
2022-11-30T14:27:25.199Z,102380.50
2022-11-30T14:29:35.735Z,102377.25
2022-11-30T14:31:49.821Z,102381.69
2022-11-30T14:33:55.033Z,102375.03
2022-11-30T14:36:00.764Z,102370.06
2022-11-30T14:38:03.957Z,102376.94
2022-11-30T14:40:07.717Z,102376.03
2022-11-30T14:42:16.103Z,102371.31
2022-11-30T14:44:18.328Z,102385.75
2022-11-30T14:46:20.696Z,102379.03
2022-11-30T14:48:22.820Z,102381.91
2022-11-30T14:50:26.710Z,102386.31
2022-11-30T14:52:37.649Z,102378.50
2022-11-30T14:54:44.001Z,102375.13
2022-11-30T14:56:50.661Z,102376.13
2022-11-30T14:59:03.968Z,102370.97
2022-11-30T15:01:19.839Z,102378.38
2022-11-30T15:03:28.625Z,102378.44
2022-11-30T15:05:31.169Z,102383.53
2022-11-30T15:07:35.467Z,102376.34
2022-11-30T15:09:38.207Z,102377.41
2022-11-30T15:11:43.955Z,102387.66
2022-11-30T15:13:51.638Z,102386.34
2022-11-30T15:15:56.388Z,102389.75
2022-11-30T15:18:13.374Z,102389.91
2022-11-30T15:20:21.934Z,102392.31
2022-11-30T15:22:25.312Z,102386.28
2022-11-30T15:24:30.333Z,102391.44
2022-11-30T15:26:38.956Z,102383.44
2022-11-30T15:28:46.196Z,102381.94
2022-11-30T15:30:55.807Z,102388.78
2022-11-30T15:32:58.228Z,102393.19
2022-11-30T15:35:01.381Z,102391.19
2022-11-30T15:37:04.063Z,102394.47
2022-11-30T15:39:08.768Z,102392.56
2022-11-30T15:41:18.956Z,102394.59
2022-11-30T15:43:25.236Z,102390.38
2022-11-30T15:45:32.471Z,102386.94
2022-11-30T15:47:38.526Z,102391.06
2022-11-30T15:49:53.265Z,102394.59
2022-11-30T15:52:05.656Z,102398.28
2022-11-30T15:54:08.161Z,102397.25
2022-11-30T15:56:23.927Z,102397.59
2022-11-30T15:58:30.359Z,102401.78
2022-11-30T16:00:32.768Z,102403.53
2022-11-30T16:02:37.381Z,102399.69
2022-11-30T16:04:45.904Z,102409.03
2022-11-30T16:06:48.914Z,102405.66
2022-11-30T16:08:51.758Z,102404.84
2022-11-30T16:10:55.294Z,102408.94
2022-11-30T16:12:57.570Z,102408.56
2022-11-30T16:15:00.082Z,102411.19
2022-11-30T16:17:08.571Z,102411.34
2022-11-30T16:19:12.943Z,102408.84
2022-11-30T16:21:18.080Z,102406.25
2022-11-30T16:23:21.357Z,102415.88
2022-11-30T16:25:27.067Z,102416.00
2022-11-30T16:27:29.401Z,102412.69
2022-11-30T16:29:32.207Z,102414.56
2022-11-30T16:31:35.536Z,102425.63
2022-11-30T16:33:38.021Z,102428.00
2022-11-30T16:35:47.845Z,102432.41
2022-11-30T16:37:51.255Z,102435.16
2022-11-30T16:39:55.182Z,102427.31
2022-11-30T16:41:57.492Z,102435.22
2022-11-30T16:44:00.109Z,102433.34
2022-11-30T16:46:03.948Z,102431.59
2022-11-30T16:48:22.695Z,102440.19
2022-11-30T16:50:33.724Z,102434.25
2022-11-30T16:54:43.022Z,102440.31
2022-11-30T16:56:47.080Z,102437.34
2022-11-30T16:58:50.163Z,102434.09
2022-11-30T17:01:21.092Z,102437.63
2022-11-30T17:03:28.744Z,102445.53
2022-11-30T17:05:32.468Z,102448.13
2022-11-30T17:07:38.750Z,102447.16
2022-11-30T17:09:51.960Z,102445.53
2022-11-30T17:12:03.508Z,102454.06
2022-11-30T17:14:10.069Z,102460.84
2022-11-30T17:16:18.206Z,102463.28
2022-11-30T17:18:29.721Z,102464.31
2022-11-30T17:20:31.867Z,102465.25
2022-11-30T17:22:37.236Z,102468.72
2022-11-30T17:24:38.869Z,102469.53
2022-11-30T17:26:40.734Z,102468.63
2022-11-30T17:28:42.487Z,102474.53
2022-11-30T17:30:44.258Z,102477.09
2022-11-30T17:32:46.317Z,102477.31
2022-11-30T17:34:48.283Z,102476.28
2022-11-30T17:36:51.258Z,102480.69
2022-11-30T17:38:53.013Z,102481.72
2022-11-30T17:40:54.948Z,102484.22
2022-11-30T17:42:56.671Z,102487.75
2022-11-30T17:44:58.545Z,102492.91
2022-11-30T17:47:04.516Z,102487.75
2022-11-30T17:49:06.436Z,102498.03
2022-11-30T17:51:09.853Z,102493.16
2022-11-30T17:53:17.829Z,102494.78
2022-11-30T17:55:20.024Z,102498.41
2022-11-30T17:57:22.000Z,102504.34
2022-11-30T17:59:23.616Z,102504.19
2022-11-30T18:01:26.882Z,102507.31
2022-11-30T18:03:29.916Z,102506.28
2022-11-30T18:05:38.658Z,102501.22
2022-11-30T18:07:40.500Z,102508.28
2022-11-30T18:09:43.067Z,102505.41
2022-11-30T18:11:44.972Z,102511.59
2022-11-30T18:13:48.110Z,102509.09
2022-11-30T18:15:50.344Z,102515.72
2022-11-30T18:17:52.698Z,102519.91
2022-11-30T18:19:54.679Z,102513.19
2022-11-30T18:21:56.512Z,102514.09
2022-11-30T18:23:59.277Z,102524.25
2022-11-30T18:26:03.395Z,102522.63
2022-11-30T18:28:05.126Z,102521.66
2022-11-30T18:30:10.293Z,102522.56
2022-11-30T18:32:12.469Z,102524.88
2022-11-30T18:34:14.602Z,102526.63
2022-11-30T18:36:16.358Z,102531.06
2022-11-30T18:38:18.072Z,102524.31
2022-11-30T18:40:19.756Z,102529.59
2022-11-30T18:42:22.686Z,102530.47
2022-11-30T18:44:24.369Z,102534.00
2022-11-30T18:46:26.796Z,102534.81
2022-11-30T18:48:28.614Z,102532.50
2022-11-30T18:50:30.288Z,102537.66
2022-11-30T18:52:31.973Z,102537.00
2022-11-30T18:54:33.657Z,102539.66
2022-11-30T18:56:37.797Z,102541.50
2022-11-30T18:58:43.525Z,102544.06
2022-11-30T19:00:45.272Z,102545.06
2022-11-30T19:02:48.184Z,102537.81
2022-11-30T19:04:50.272Z,102540.31
2022-11-30T19:06:52.610Z,102541.13
2022-11-30T19:08:54.317Z,102536.59
2022-11-30T19:11:05.019Z,102539.16
2022-11-30T19:13:07.627Z,102540.09
2022-11-30T19:15:09.731Z,102538.34
2022-11-30T19:17:11.715Z,102542.78
2022-11-30T19:19:14.710Z,102542.69
2022-11-30T19:21:18.485Z,102542.78
2022-11-30T19:23:20.112Z,102540.03
2022-11-30T19:25:21.759Z,102546.06
2022-11-30T19:27:23.533Z,102547.63
2022-11-30T19:29:33.499Z,102552.91
2022-11-30T19:31:35.237Z,102555.28
2022-11-30T19:33:38.760Z,102550.13
2022-11-30T19:35:42.122Z,102544.09
2022-11-30T19:37:43.730Z,102549.72
2022-11-30T19:39:45.897Z,102544.66
2022-11-30T19:41:48.351Z,102546.66
2022-11-30T19:44:04.053Z,102548.22
2022-11-30T19:46:24.807Z,102545.53
2022-11-30T19:48:26.503Z,102547.63
2022-11-30T19:50:28.258Z,102556.06
2022-11-30T19:52:30.048Z,102557.91
2022-11-30T19:54:31.790Z,102560.28
2022-11-30T19:56:37.352Z,102563.81
2022-11-30T19:58:39.862Z,102558.50
2022-11-30T20:00:41.506Z,102563.19
2022-11-30T20:02:43.224Z,102562.75
2022-11-30T20:04:44.908Z,102560.97
2022-11-30T20:06:46.568Z,102568.63
2022-11-30T20:08:48.307Z,102563.56
2022-11-30T20:10:50.210Z,102568.13
2022-11-30T20:12:51.880Z,102576.81
2022-11-30T20:14:54.466Z,102574.25
2022-11-30T20:16:56.182Z,102581.50
2022-11-30T20:19:03.132Z,102569.50
2022-11-30T20:21:13.078Z,102575.72
2022-11-30T20:23:14.765Z,102574.09
2022-11-30T20:25:16.735Z,102571.38
2022-11-30T20:27:22.709Z,102576.66
2022-11-30T20:29:24.393Z,102579.38
2022-11-30T20:31:27.865Z,102577.69
2022-11-30T20:33:29.520Z,102576.16
2022-11-30T20:35:31.178Z,102579.53
2022-11-30T20:37:34.429Z,102577.06
2022-11-30T20:39:37.949Z,102574.38
2022-11-30T20:41:42.899Z,102580.53
2022-11-30T20:43:44.715Z,102582.22
2022-11-30T20:45:46.322Z,102585.56
2022-11-30T20:47:48.054Z,102590.56
2022-11-30T20:49:50.432Z,102590.72
2022-11-30T20:51:52.939Z,102595.88
2022-11-30T20:53:54.802Z,102596.84
2022-11-30T20:56:00.550Z,102604.47
2022-11-30T20:58:02.489Z,102604.47
2022-11-30T21:00:07.618Z,102608.94
2022-11-30T21:02:13.393Z,102606.25
2022-11-30T21:04:15.175Z,102607.25
2022-11-30T21:06:27.027Z,102609.72
2022-11-30T21:08:31.588Z,102605.13
2022-11-30T21:10:33.226Z,102614.47
2022-11-30T21:12:34.981Z,102616.22
2022-11-30T21:14:37.131Z,102614.53
2022-11-30T21:16:39.726Z,102615.44
2022-11-30T21:18:44.504Z,102611.75
2022-11-30T21:20:46.153Z,102607.47
2022-11-30T21:22:47.963Z,102598.56
2022-11-30T21:24:50.470Z,102604.59
2022-11-30T21:26:52.734Z,102602.59
2022-11-30T21:28:58.733Z,102611.97
2022-11-30T21:31:00.554Z,102613.66
2022-11-30T21:33:02.331Z,102612.72
2022-11-30T21:35:04.180Z,102615.19
2022-11-30T21:37:05.929Z,102622.84
2022-11-30T21:39:08.462Z,102622.13
2022-11-30T21:41:14.343Z,102623.88
2022-11-30T21:43:15.979Z,102635.94
2022-11-30T21:45:17.660Z,102629.91
2022-11-30T21:47:19.762Z,102634.25
2022-11-30T21:49:21.467Z,102632.75
2022-11-30T21:51:25.580Z,102629.91
2022-11-30T21:53:28.235Z,102640.28
2022-11-30T21:55:30.027Z,102639.41
2022-11-30T21:57:31.963Z,102636.44
2022-11-30T21:59:33.591Z,102635.88
2022-11-30T22:01:37.899Z,102640.13
2022-11-30T22:03:39.726Z,102640.06
2022-11-30T22:05:41.404Z,102640.06
2022-11-30T22:07:45.357Z,102639.16
2022-11-30T22:09:47.173Z,102639.91
2022-11-30T22:11:49.041Z,102645.13
2022-11-30T22:13:54.451Z,102648.25
2022-11-30T22:16:18.522Z,102650.94
2022-11-30T22:18:20.262Z,102653.56
2022-11-30T22:20:22.057Z,102654.28
2022-11-30T22:22:23.734Z,102651.00
2022-11-30T22:24:25.370Z,102651.81
2022-11-30T22:26:38.090Z,102650.00
2022-11-30T22:28:42.775Z,102659.34
2022-11-30T22:30:44.718Z,102656.84
2022-11-30T22:32:46.388Z,102659.53
2022-11-30T22:34:48.144Z,102656.47
2022-11-30T22:36:50.141Z,102657.66
2022-11-30T22:38:57.428Z,102666.09
2022-11-30T22:41:16.871Z,102668.53
2022-11-30T22:43:18.560Z,102664.69
2022-11-30T22:45:20.245Z,102664.03
2022-11-30T22:47:21.912Z,102665.78
2022-11-30T22:49:23.788Z,102662.00
2022-11-30T22:51:27.695Z,102665.94
2022-11-30T22:53:29.532Z,102665.13
2022-11-30T22:55:32.505Z,102668.28
2022-11-30T22:57:34.343Z,102674.47
2022-11-30T22:59:35.971Z,102672.78
2022-11-30T23:01:42.256Z,102667.69
2022-11-30T23:03:45.455Z,102666.28
2022-11-30T23:05:47.194Z,102662.75
2022-11-30T23:07:48.901Z,102668.78
2022-11-30T23:09:50.737Z,102667.16
2022-11-30T23:11:52.693Z,102666.28
2022-11-30T23:13:54.590Z,102674.81
2022-11-30T23:16:00.054Z,102668.78
2022-11-30T23:18:30.999Z,102672.06
2022-11-30T23:20:35.615Z,102669.31
2022-11-30T23:22:38.003Z,102663.28
2022-11-30T23:24:39.935Z,102659.91
2022-11-30T23:26:43.084Z,102667.69
2022-11-30T23:28:46.745Z,102664.09
2022-11-30T23:30:48.956Z,102661.66
2022-11-30T23:32:55.195Z,102655.72
2022-11-30T23:34:57.352Z,102655.72
2022-11-30T23:36:59.415Z,102671.28
2022-11-30T23:39:05.188Z,102669.31
2022-11-30T23:41:12.242Z,102675.53
2022-11-30T23:43:14.259Z,102674.53
2022-11-30T23:45:16.419Z,102676.22
2022-11-30T23:47:19.260Z,102675.19
2022-11-30T23:49:21.437Z,102669.16
2022-11-30T23:51:23.911Z,102675.94
2022-11-30T23:53:26.198Z,102675.03
2022-11-30T23:55:29.031Z,102676.47
2022-11-30T23:57:30.654Z,102666.59
2022-11-30T23:59:32.256Z,102668.34
